sensor_id;sensor_type;location;lat;lon;timestamp;temperature;humidity
5419;DHT22;2732;52.092;11.556;2023-03-11T00:03:39;1.20;99.90
5419;DHT22;2732;52.092;11.556;2023-03-11T00:08:40;1.20;99.90
5419;DHT22;2732;52.092;11.556;2023-03-11T00:13:41;1.10;99.90
5419;DHT22;2732;52.092;11.556;2023-03-11T00:18:41;1.10;99.90
5419;DHT22;2732;52.092;11.556;2023-03-11T00:23:42;1.10;99.90
5419;DHT22;2732;52.092;11.556;2023-03-11T00:28:43;1.00;99.90
5419;DHT22;2732;52.092;11.556;2023-03-11T00:33:43;1.00;99.90
5419;DHT22;2732;52.092;11.556;2023-03-11T00:38:44;1.00;99.90
5419;DHT22;2732;52.092;11.556;2023-03-11T00:43:45;1.00;99.90
5419;DHT22;2732;52.092;11.556;2023-03-11T00:48:45;1.00;99.90
5419;DHT22;2732;52.092;11.556;2023-03-11T00:53:46;1.00;99.90
5419;DHT22;2732;52.092;11.556;2023-03-11T00:58:46;0.90;99.90
5419;DHT22;2732;52.092;11.556;2023-03-11T01:03:47;0.90;99.90
5419;DHT22;2732;52.092;11.556;2023-03-11T01:08:48;0.90;99.90
5419;DHT22;2732;52.092;11.556;2023-03-11T01:13:48;0.90;99.90
5419;DHT22;2732;52.092;11.556;2023-03-11T01:18:49;0.90;99.90
5419;DHT22;2732;52.092;11.556;2023-03-11T01:23:50;0.90;99.90
5419;DHT22;2732;52.092;11.556;2023-03-11T01:28:52;0.90;99.90
5419;DHT22;2732;52.092;11.556;2023-03-11T01:33:53;0.90;99.90
5419;DHT22;2732;52.092;11.556;2023-03-11T01:38:53;0.90;99.90
5419;DHT22;2732;52.092;11.556;2023-03-11T01:43:55;0.90;99.90
5419;DHT22;2732;52.092;11.556;2023-03-11T01:49:01;0.90;99.90
5419;DHT22;2732;52.092;11.556;2023-03-11T01:54:06;0.90;99.90
5419;DHT22;2732;52.092;11.556;2023-03-11T01:59:15;0.80;99.90
5419;DHT22;2732;52.092;11.556;2023-03-11T02:04:19;0.80;99.90
5419;DHT22;2732;52.092;11.556;2023-03-11T02:09:20;0.80;99.90
5419;DHT22;2732;52.092;11.556;2023-03-11T02:14:24;0.80;99.90
5419;DHT22;2732;52.092;11.556;2023-03-11T02:20:04;0.80;99.90
5419;DHT22;2732;52.092;11.556;2023-03-11T02:30:35;0.80;99.90
5419;DHT22;2732;52.092;11.556;2023-03-11T02:35:39;0.80;99.90
5419;DHT22;2732;52.092;11.556;2023-03-11T02:40:53;0.80;99.90
5419;DHT22;2732;52.092;11.556;2023-03-11T02:46:03;0.80;99.90
5419;DHT22;2732;52.092;11.556;2023-03-11T02:51:05;0.70;99.90
5419;DHT22;2732;52.092;11.556;2023-03-11T02:56:06;0.70;99.90
5419;DHT22;2732;52.092;11.556;2023-03-11T03:01:07;0.70;99.90
5419;DHT22;2732;52.092;11.556;2023-03-11T03:06:07;0.70;99.90
5419;DHT22;2732;52.092;11.556;2023-03-11T03:11:08;0.70;99.90
5419;DHT22;2732;52.092;11.556;2023-03-11T03:16:09;0.70;99.90
5419;DHT22;2732;52.092;11.556;2023-03-11T03:21:09;0.70;99.90
5419;DHT22;2732;52.092;11.556;2023-03-11T03:26:13;0.70;99.90
5419;DHT22;2732;52.092;11.556;2023-03-11T03:31:14;0.70;99.90
5419;DHT22;2732;52.092;11.556;2023-03-11T03:36:15;0.70;99.90
5419;DHT22;2732;52.092;11.556;2023-03-11T03:41:16;0.70;99.90
5419;DHT22;2732;52.092;11.556;2023-03-11T03:46:16;0.70;99.90
5419;DHT22;2732;52.092;11.556;2023-03-11T03:51:17;0.70;99.90
5419;DHT22;2732;52.092;11.556;2023-03-11T03:56:18;0.70;99.90
5419;DHT22;2732;52.092;11.556;2023-03-11T04:01:20;0.70;99.90
5419;DHT22;2732;52.092;11.556;2023-03-11T04:06:23;0.60;99.90
5419;DHT22;2732;52.092;11.556;2023-03-11T04:11:24;0.70;99.90
5419;DHT22;2732;52.092;11.556;2023-03-11T04:16:25;0.70;99.90
5419;DHT22;2732;52.092;11.556;2023-03-11T04:21:26;0.60;99.90
5419;DHT22;2732;52.092;11.556;2023-03-11T04:26:27;0.60;99.90
5419;DHT22;2732;52.092;11.556;2023-03-11T04:31:28;0.60;99.90
5419;DHT22;2732;52.092;11.556;2023-03-11T04:36:29;0.60;99.90
5419;DHT22;2732;52.092;11.556;2023-03-11T04:41:29;0.60;99.90
5419;DHT22;2732;52.092;11.556;2023-03-11T04:46:30;0.60;99.90
5419;DHT22;2732;52.092;11.556;2023-03-11T04:51:30;0.60;99.90
5419;DHT22;2732;52.092;11.556;2023-03-11T04:56:34;0.60;99.90
5419;DHT22;2732;52.092;11.556;2023-03-11T05:01:35;0.60;99.90
5419;DHT22;2732;52.092;11.556;2023-03-11T05:06:35;0.60;99.90
5419;DHT22;2732;52.092;11.556;2023-03-11T05:11:36;0.60;99.90
5419;DHT22;2732;52.092;11.556;2023-03-11T05:16:36;0.60;99.90
5419;DHT22;2732;52.092;11.556;2023-03-11T05:21:37;0.60;99.90
5419;DHT22;2732;52.092;11.556;2023-03-11T05:26:37;0.60;99.90
5419;DHT22;2732;52.092;11.556;2023-03-11T05:31:38;0.60;99.90
5419;DHT22;2732;52.092;11.556;2023-03-11T05:36:39;0.60;99.90
5419;DHT22;2732;52.092;11.556;2023-03-11T05:41:40;0.60;99.90
5419;DHT22;2732;52.092;11.556;2023-03-11T05:46:40;0.60;99.90
5419;DHT22;2732;52.092;11.556;2023-03-11T05:51:41;0.60;99.90
5419;DHT22;2732;52.092;11.556;2023-03-11T05:56:43;0.50;99.90
5419;DHT22;2732;52.092;11.556;2023-03-11T06:01:44;0.50;99.90
5419;DHT22;2732;52.092;11.556;2023-03-11T06:06:45;0.60;99.90
5419;DHT22;2732;52.092;11.556;2023-03-11T06:11:45;0.50;99.90
5419;DHT22;2732;52.092;11.556;2023-03-11T06:16:46;0.50;99.90
5419;DHT22;2732;52.092;11.556;2023-03-11T06:21:47;0.50;99.90
5419;DHT22;2732;52.092;11.556;2023-03-11T06:26:50;0.50;99.90
5419;DHT22;2732;52.092;11.556;2023-03-11T06:31:53;0.50;99.90
5419;DHT22;2732;52.092;11.556;2023-03-11T06:36:55;0.50;99.90
5419;DHT22;2732;52.092;11.556;2023-03-11T06:41:56;0.50;99.90
5419;DHT22;2732;52.092;11.556;2023-03-11T06:46:57;0.50;99.90
5419;DHT22;2732;52.092;11.556;2023-03-11T06:51:57;0.50;99.90
5419;DHT22;2732;52.092;11.556;2023-03-11T06:56:58;0.60;99.90
5419;DHT22;2732;52.092;11.556;2023-03-11T07:01:58;0.50;99.90
5419;DHT22;2732;52.092;11.556;2023-03-11T07:06:59;0.50;99.90
5419;DHT22;2732;52.092;11.556;2023-03-11T07:11:59;0.60;99.90
5419;DHT22;2732;52.092;11.556;2023-03-11T07:17:00;0.60;99.90
5419;DHT22;2732;52.092;11.556;2023-03-11T07:22:01;0.60;99.90
5419;DHT22;2732;52.092;11.556;2023-03-11T07:27:02;0.70;99.90
5419;DHT22;2732;52.092;11.556;2023-03-11T07:32:03;0.70;99.90
5419;DHT22;2732;52.092;11.556;2023-03-11T07:37:04;0.70;99.90
5419;DHT22;2732;52.092;11.556;2023-03-11T07:42:04;0.80;99.90
5419;DHT22;2732;52.092;11.556;2023-03-11T07:47:05;0.80;99.90
5419;DHT22;2732;52.092;11.556;2023-03-11T07:52:06;0.80;99.90
5419;DHT22;2732;52.092;11.556;2023-03-11T07:57:07;0.90;99.90
5419;DHT22;2732;52.092;11.556;2023-03-11T08:02:14;0.90;99.90
5419;DHT22;2732;52.092;11.556;2023-03-11T08:07:15;0.90;99.90
5419;DHT22;2732;52.092;11.556;2023-03-11T08:12:16;0.90;99.90
5419;DHT22;2732;52.092;11.556;2023-03-11T08:17:16;0.90;99.90
5419;DHT22;2732;52.092;11.556;2023-03-11T08:22:17;0.90;99.90
5419;DHT22;2732;52.092;11.556;2023-03-11T08:27:18;1.00;99.90
5419;DHT22;2732;52.092;11.556;2023-03-11T08:32:19;1.00;99.90
5419;DHT22;2732;52.092;11.556;2023-03-11T08:37:19;1.00;99.90
5419;DHT22;2732;52.092;11.556;2023-03-11T08:42:20;1.00;99.90
5419;DHT22;2732;52.092;11.556;2023-03-11T08:47:21;1.10;99.90
5419;DHT22;2732;52.092;11.556;2023-03-11T08:52:21;1.10;99.90
5419;DHT22;2732;52.092;11.556;2023-03-11T08:57:22;1.10;99.90
5419;DHT22;2732;52.092;11.556;2023-03-11T09:02:25;1.10;99.90
5419;DHT22;2732;52.092;11.556;2023-03-11T09:07:26;1.20;99.90
5419;DHT22;2732;52.092;11.556;2023-03-11T09:12:27;1.20;99.90
5419;DHT22;2732;52.092;11.556;2023-03-11T09:17:28;1.30;99.90
5419;DHT22;2732;52.092;11.556;2023-03-11T09:22:28;1.30;99.90
5419;DHT22;2732;52.092;11.556;2023-03-11T09:27:29;1.30;99.90
5419;DHT22;2732;52.092;11.556;2023-03-11T09:32:29;1.40;99.90
5419;DHT22;2732;52.092;11.556;2023-03-11T09:37:30;1.50;99.90
5419;DHT22;2732;52.092;11.556;2023-03-11T09:48:43;1.60;99.90
5419;DHT22;2732;52.092;11.556;2023-03-11T09:54:38;1.60;99.90
5419;DHT22;2732;52.092;11.556;2023-03-11T09:59:16;1.70;99.90
5419;DHT22;2732;52.092;11.556;2023-03-11T10:04:24;1.80;99.90
5419;DHT22;2732;52.092;11.556;2023-03-11T10:09:42;1.90;99.90
5419;DHT22;2732;52.092;11.556;2023-03-11T10:14:58;1.90;99.90
5419;DHT22;2732;52.092;11.556;2023-03-11T10:20:47;1.90;99.90
5419;DHT22;2732;52.092;11.556;2023-03-11T10:31:43;2.00;99.90
5419;DHT22;2732;52.092;11.556;2023-03-11T10:36:51;2.10;99.90
5419;DHT22;2732;52.092;11.556;2023-03-11T10:42:02;2.20;99.90
5419;DHT22;2732;52.092;11.556;2023-03-11T10:47:04;2.20;99.90
5419;DHT22;2732;52.092;11.556;2023-03-11T10:52:06;2.30;99.90
5419;DHT22;2732;52.092;11.556;2023-03-11T10:57:25;2.30;99.90
5419;DHT22;2732;52.092;11.556;2023-03-11T11:02:38;2.40;99.90
5419;DHT22;2732;52.092;11.556;2023-03-11T11:07:39;2.40;99.90
5419;DHT22;2732;52.092;11.556;2023-03-11T11:18:03;2.50;99.90
5419;DHT22;2732;52.092;11.556;2023-03-11T11:23:24;2.40;99.90
5419;DHT22;2732;52.092;11.556;2023-03-11T11:28:26;2.50;99.90
5419;DHT22;2732;52.092;11.556;2023-03-11T11:33:48;2.60;99.90
5419;DHT22;2732;52.092;11.556;2023-03-11T11:38:55;2.60;99.90
5419;DHT22;2732;52.092;11.556;2023-03-11T11:44:03;2.70;99.90
5419;DHT22;2732;52.092;11.556;2023-03-11T11:49:18;2.70;99.90
5419;DHT22;2732;52.092;11.556;2023-03-11T11:54:36;2.80;99.90
5419;DHT22;2732;52.092;11.556;2023-03-11T11:59:39;2.90;99.90
5419;DHT22;2732;52.092;11.556;2023-03-11T12:15:31;3.20;99.90
5419;DHT22;2732;52.092;11.556;2023-03-11T12:21:17;3.30;99.90
5419;DHT22;2732;52.092;11.556;2023-03-11T12:26:24;3.40;99.90
5419;DHT22;2732;52.092;11.556;2023-03-11T12:31:28;3.50;99.90
5419;DHT22;2732;52.092;11.556;2023-03-11T12:36:43;3.50;99.90
5419;DHT22;2732;52.092;11.556;2023-03-11T12:41:44;3.50;99.90
5419;DHT22;2732;52.092;11.556;2023-03-11T12:57:28;4.00;99.90
5419;DHT22;2732;52.092;11.556;2023-03-11T13:08:17;4.20;99.90
5419;DHT22;2732;52.092;11.556;2023-03-11T13:13:39;4.40;99.90
5419;DHT22;2732;52.092;11.556;2023-03-11T13:18:41;4.30;99.90
5419;DHT22;2732;52.092;11.556;2023-03-11T13:23:43;4.20;99.90
5419;DHT22;2732;52.092;11.556;2023-03-11T13:45:38;4.50;99.90
5419;DHT22;2732;52.092;11.556;2023-03-11T13:50:43;4.70;99.90
5419;DHT22;2732;52.092;11.556;2023-03-11T13:55:48;5.00;99.90
5419;DHT22;2732;52.092;11.556;2023-03-11T14:00:59;5.10;99.90
5419;DHT22;2732;52.092;11.556;2023-03-11T14:06:04;5.10;99.90
5419;DHT22;2732;52.092;11.556;2023-03-11T14:21:20;5.30;99.90
5419;DHT22;2732;52.092;11.556;2023-03-11T14:26:29;5.40;99.90
5419;DHT22;2732;52.092;11.556;2023-03-11T14:31:38;5.40;99.90
5419;DHT22;2732;52.092;11.556;2023-03-11T14:36:42;5.40;99.90
5419;DHT22;2732;52.092;11.556;2023-03-11T14:42:00;5.40;99.90
5419;DHT22;2732;52.092;11.556;2023-03-11T14:47:15;5.40;99.90
5419;DHT22;2732;52.092;11.556;2023-03-11T14:52:53;5.50;99.90
5419;DHT22;2732;52.092;11.556;2023-03-11T14:58:30;5.50;99.90
5419;DHT22;2732;52.092;11.556;2023-03-11T15:03:38;5.60;99.90
5419;DHT22;2732;52.092;11.556;2023-03-11T15:08:54;5.50;99.90
5419;DHT22;2732;52.092;11.556;2023-03-11T15:14:23;5.40;99.90
5419;DHT22;2732;52.092;11.556;2023-03-11T15:24:33;5.40;99.90
5419;DHT22;2732;52.092;11.556;2023-03-11T15:29:36;5.50;99.90
5419;DHT22;2732;52.092;11.556;2023-03-11T15:34:37;5.50;99.90
5419;DHT22;2732;52.092;11.556;2023-03-11T15:39:41;5.60;99.90
5419;DHT22;2732;52.092;11.556;2023-03-11T15:45:02;5.70;99.90
5419;DHT22;2732;52.092;11.556;2023-03-11T15:50:20;5.70;99.90
5419;DHT22;2732;52.092;11.556;2023-03-11T15:55:26;5.80;99.90
5419;DHT22;2732;52.092;11.556;2023-03-11T16:00:27;5.80;99.90
5419;DHT22;2732;52.092;11.556;2023-03-11T16:05:28;5.80;99.90
5419;DHT22;2732;52.092;11.556;2023-03-11T16:10:29;5.80;99.90
5419;DHT22;2732;52.092;11.556;2023-03-11T16:15:33;5.80;99.90
5419;DHT22;2732;52.092;11.556;2023-03-11T16:20:47;5.80;99.90
5419;DHT22;2732;52.092;11.556;2023-03-11T16:26:00;5.70;99.90
5419;DHT22;2732;52.092;11.556;2023-03-11T16:31:02;5.60;99.90
5419;DHT22;2732;52.092;11.556;2023-03-11T16:36:03;5.50;99.90
5419;DHT22;2732;52.092;11.556;2023-03-11T16:41:04;5.30;99.90
5419;DHT22;2732;52.092;11.556;2023-03-11T16:46:05;5.10;99.90
5419;DHT22;2732;52.092;11.556;2023-03-11T16:51:06;4.90;99.90
5419;DHT22;2732;52.092;11.556;2023-03-11T16:56:07;4.70;99.90
5419;DHT22;2732;52.092;11.556;2023-03-11T17:01:11;4.50;99.90
5419;DHT22;2732;52.092;11.556;2023-03-11T17:06:11;4.30;99.90
5419;DHT22;2732;52.092;11.556;2023-03-11T17:11:18;4.10;99.90
5419;DHT22;2732;52.092;11.556;2023-03-11T17:16:20;3.90;99.90
5419;DHT22;2732;52.092;11.556;2023-03-11T17:21:21;3.70;99.90
5419;DHT22;2732;52.092;11.556;2023-03-11T17:26:21;3.60;99.90
5419;DHT22;2732;52.092;11.556;2023-03-11T17:31:22;3.40;99.90
5419;DHT22;2732;52.092;11.556;2023-03-11T17:36:23;3.30;99.90
5419;DHT22;2732;52.092;11.556;2023-03-11T17:41:24;3.10;99.90
5419;DHT22;2732;52.092;11.556;2023-03-11T17:46:25;3.00;99.90
5419;DHT22;2732;52.092;11.556;2023-03-11T17:51:25;2.80;99.90
5419;DHT22;2732;52.092;11.556;2023-03-11T17:56:26;2.70;99.90
5419;DHT22;2732;52.092;11.556;2023-03-11T18:01:28;2.50;99.90
5419;DHT22;2732;52.092;11.556;2023-03-11T18:06:29;2.40;99.90
5419;DHT22;2732;52.092;11.556;2023-03-11T18:11:30;2.30;99.90
5419;DHT22;2732;52.092;11.556;2023-03-11T18:16:31;2.20;99.90
5419;DHT22;2732;52.092;11.556;2023-03-11T18:21:33;2.10;99.90
5419;DHT22;2732;52.092;11.556;2023-03-11T18:26:35;2.00;99.90
5419;DHT22;2732;52.092;11.556;2023-03-11T18:31:36;1.90;99.90
5419;DHT22;2732;52.092;11.556;2023-03-11T18:36:39;1.90;99.90
5419;DHT22;2732;52.092;11.556;2023-03-11T18:41:40;1.80;99.90
5419;DHT22;2732;52.092;11.556;2023-03-11T18:46:42;1.70;99.90
5419;DHT22;2732;52.092;11.556;2023-03-11T18:51:42;1.60;99.90
5419;DHT22;2732;52.092;11.556;2023-03-11T18:56:43;1.50;99.90
5419;DHT22;2732;52.092;11.556;2023-03-11T19:01:44;1.50;99.90
5419;DHT22;2732;52.092;11.556;2023-03-11T19:06:44;1.40;99.90
5419;DHT22;2732;52.092;11.556;2023-03-11T19:11:45;1.30;99.90
5419;DHT22;2732;52.092;11.556;2023-03-11T19:16:46;1.20;99.90
5419;DHT22;2732;52.092;11.556;2023-03-11T19:21:47;1.10;99.90
5419;DHT22;2732;52.092;11.556;2023-03-11T19:26:47;1.10;99.90
5419;DHT22;2732;52.092;11.556;2023-03-11T19:31:48;1.00;99.90
5419;DHT22;2732;52.092;11.556;2023-03-11T19:36:49;1.00;99.90
5419;DHT22;2732;52.092;11.556;2023-03-11T19:41:50;0.90;99.90
5419;DHT22;2732;52.092;11.556;2023-03-11T19:46:50;0.90;99.90
5419;DHT22;2732;52.092;11.556;2023-03-11T19:51:51;0.80;99.90
5419;DHT22;2732;52.092;11.556;2023-03-11T19:56:52;0.70;99.90
5419;DHT22;2732;52.092;11.556;2023-03-11T20:01:54;0.70;99.90
5419;DHT22;2732;52.092;11.556;2023-03-11T20:06:55;0.60;99.90
5419;DHT22;2732;52.092;11.556;2023-03-11T20:11:56;0.60;99.90
5419;DHT22;2732;52.092;11.556;2023-03-11T20:16:57;0.60;99.90
5419;DHT22;2732;52.092;11.556;2023-03-11T20:21:57;0.50;99.90
5419;DHT22;2732;52.092;11.556;2023-03-11T20:26:58;0.50;99.90
5419;DHT22;2732;52.092;11.556;2023-03-11T20:31:59;0.40;99.90
5419;DHT22;2732;52.092;11.556;2023-03-11T20:36:59;0.40;99.90
5419;DHT22;2732;52.092;11.556;2023-03-11T20:42:00;0.40;99.90
5419;DHT22;2732;52.092;11.556;2023-03-11T20:47:00;0.30;99.90
5419;DHT22;2732;52.092;11.556;2023-03-11T20:52:01;0.30;99.90
5419;DHT22;2732;52.092;11.556;2023-03-11T20:57:02;0.30;99.90
5419;DHT22;2732;52.092;11.556;2023-03-11T21:02:03;0.30;99.90
5419;DHT22;2732;52.092;11.556;2023-03-11T21:07:06;0.20;99.90
5419;DHT22;2732;52.092;11.556;2023-03-11T21:12:08;0.20;99.90
5419;DHT22;2732;52.092;11.556;2023-03-11T21:17:08;0.20;99.90
5419;DHT22;2732;52.092;11.556;2023-03-11T21:22:09;0.10;99.90
5419;DHT22;2732;52.092;11.556;2023-03-11T21:27:10;0.10;99.90
5419;DHT22;2732;52.092;11.556;2023-03-11T21:32:10;0.10;99.90
5419;DHT22;2732;52.092;11.556;2023-03-11T21:37:11;0.10;99.90
5419;DHT22;2732;52.092;11.556;2023-03-11T21:42:11;0.00;99.90
5419;DHT22;2732;52.092;11.556;2023-03-11T21:47:12;0.00;99.90
5419;DHT22;2732;52.092;11.556;2023-03-11T21:52:15;0.00;99.90
5419;DHT22;2732;52.092;11.556;2023-03-11T21:57:16;0.00;99.90
5419;DHT22;2732;52.092;11.556;2023-03-11T22:02:17;-0.10;99.90
5419;DHT22;2732;52.092;11.556;2023-03-11T22:07:18;-0.10;99.90
5419;DHT22;2732;52.092;11.556;2023-03-11T22:12:18;-0.10;99.90
5419;DHT22;2732;52.092;11.556;2023-03-11T22:17:19;-0.20;99.90
5419;DHT22;2732;52.092;11.556;2023-03-11T22:22:19;-0.20;99.90
5419;DHT22;2732;52.092;11.556;2023-03-11T22:27:20;-0.20;99.90
5419;DHT22;2732;52.092;11.556;2023-03-11T22:32:21;-0.20;99.90
5419;DHT22;2732;52.092;11.556;2023-03-11T22:37:21;-0.20;99.90
5419;DHT22;2732;52.092;11.556;2023-03-11T22:42:22;-0.20;99.90
5419;DHT22;2732;52.092;11.556;2023-03-11T22:47:23;-0.30;99.90
5419;DHT22;2732;52.092;11.556;2023-03-11T22:52:24;-0.30;99.90
5419;DHT22;2732;52.092;11.556;2023-03-11T22:57:24;-0.30;99.90
5419;DHT22;2732;52.092;11.556;2023-03-11T23:02:25;-0.30;99.90
5419;DHT22;2732;52.092;11.556;2023-03-11T23:07:26;-0.30;99.90
5419;DHT22;2732;52.092;11.556;2023-03-11T23:12:27;-0.40;99.90
5419;DHT22;2732;52.092;11.556;2023-03-11T23:17:27;-0.40;99.90
5419;DHT22;2732;52.092;11.556;2023-03-11T23:22:28;-0.40;99.90
5419;DHT22;2732;52.092;11.556;2023-03-11T23:27:29;-0.40;99.90
5419;DHT22;2732;52.092;11.556;2023-03-11T23:32:30;-0.50;99.90
5419;DHT22;2732;52.092;11.556;2023-03-11T23:37:30;-0.50;99.90
5419;DHT22;2732;52.092;11.556;2023-03-11T23:42:32;-0.50;99.90
5419;DHT22;2732;52.092;11.556;2023-03-11T23:47:35;-0.50;99.90
5419;DHT22;2732;52.092;11.556;2023-03-11T23:52:37;-0.50;99.90
5419;DHT22;2732;52.092;11.556;2023-03-11T23:57:38;-0.50;99.90
